Главная страница
METAR-TAF:

METAR-TAF

Аэропорты :

Ахваз, Иран

широта: 31-20N, долгота: 048-40E, высота над уровнем моря: 20 м

Текущие метеонаблюдения

Эта сводка был подготовлена 56 минут назад, в 23:57 UTC
Ветер 2 Узел от западный
Температура 19°C
Влажность 73%
Давление 1015 hPa
Видимость 10 км и более
небольшая облачность на высоте 4000 фута

METAR: OIAW 262357Z 27002KT 9999 FEW040 19/14 Q1015

Время: 04:23 (00:53 UTC)

Прогноз

Эта сводка был подготовлена 1 час и 53 минут назад, в 23:00 UTC
Прогноз действительный с 27-го 00 UTC до 28-го 06 UTC
Ветер 8 Узел от западный-юго-западный
Видимость: 6000 м
временами
С 27-го 00 UTC до 27-го 06 UTC
Видимость: 3000 м
временами
С 28-го 00 UTC до 28-го 05 UTC
Видимость: 5000 м
мгла

TAF: OIAW 262300Z 2700/2806 24008KT 6000 NSC TEMPO 2700/2706 3000 BR/HZ TEMPO 2800/2805 5000 HZ

Метеонаблюдения и прогнозы для более 4000 аэропортов (сводки METAR и TAF).

Имеющиеся станции представлены на карте желтыми и красными точками.

Чтобы увидеть название станции, наведите на нее мышь.

Затем щелкните, чтобы увидеть метеонаблюдения и метеопрогнозы.

Управление картой: чтобы увеличить масштаб, щелкните зеленые кнопки с черным крестиком; чтобы уменьшить масштаб, щелкните зеленую кнопку с тире; для просмотра соседних карт щелкайте зеленые стрелки.


METAR-TAF: